sensor_id;sensor_type;location;lat;lon;timestamp;pressure;altitude;pressure_sealevel;temperature;humidity
6096;BME280;25081;42.698;23.298;2023-04-25T00:00:18;94522.80;;;10.63;96.07
6096;BME280;25081;42.698;23.298;2023-04-25T00:02:28;94514.31;;;10.66;94.72
6096;BME280;25081;42.698;23.298;2023-04-25T00:04:39;94508.09;;;10.74;94.28
6096;BME280;25081;42.698;23.298;2023-04-25T00:06:50;94500.33;;;10.73;93.94
6096;BME280;25081;42.698;23.298;2023-04-25T00:09:00;94499.24;;;10.71;94.00
6096;BME280;25081;42.698;23.298;2023-04-25T00:11:11;94486.80;;;10.77;94.44
6096;BME280;25081;42.698;23.298;2023-04-25T00:13:21;94474.70;;;10.86;93.29
6096;BME280;25081;42.698;23.298;2023-04-25T00:15:32;94465.81;;;10.66;92.81
6096;BME280;25081;42.698;23.298;2023-04-25T00:17:42;94467.72;;;10.54;93.50
6096;BME280;25081;42.698;23.298;2023-04-25T00:19:53;94464.05;;;10.57;93.68
6096;BME280;25081;42.698;23.298;2023-04-25T00:22:03;94459.67;;;10.66;92.94
6096;BME280;25081;42.698;23.298;2023-04-25T00:24:14;94469.28;;;10.67;91.72
6096;BME280;25081;42.698;23.298;2023-04-25T00:26:24;94462.23;;;10.75;90.54
6096;BME280;25081;42.698;23.298;2023-04-25T00:28:35;94460.09;;;10.74;91.69
6096;BME280;25081;42.698;23.298;2023-04-25T00:30:46;94460.77;;;10.81;91.86
6096;BME280;25081;42.698;23.298;2023-04-25T00:32:56;94466.00;;;10.76;92.85
6096;BME280;25081;42.698;23.298;2023-04-25T00:35:08;94460.14;;;10.77;93.70
6096;BME280;25081;42.698;23.298;2023-04-25T00:37:18;94458.84;;;10.79;93.89
6096;BME280;25081;42.698;23.298;2023-04-25T00:39:29;94465.30;;;10.81;93.70
6096;BME280;25081;42.698;23.298;2023-04-25T00:41:40;94478.17;;;10.86;94.01
6096;BME280;25081;42.698;23.298;2023-04-25T00:43:50;94472.35;;;10.89;93.55
6096;BME280;25081;42.698;23.298;2023-04-25T00:46:01;94472.31;;;11.01;94.23
6096;BME280;25081;42.698;23.298;2023-04-25T00:48:12;94474.87;;;11.10;94.30
6096;BME280;25081;42.698;23.298;2023-04-25T00:50:22;94477.13;;;11.02;94.22
6096;BME280;25081;42.698;23.298;2023-04-25T00:52:33;94478.39;;;10.99;94.75
6096;BME280;25081;42.698;23.298;2023-04-25T00:54:43;94478.08;;;10.96;94.19
6096;BME280;25081;42.698;23.298;2023-04-25T00:56:54;94471.72;;;10.99;94.47
6096;BME280;25081;42.698;23.298;2023-04-25T00:59:05;94466.21;;;11.03;93.97
6096;BME280;25081;42.698;23.298;2023-04-25T01:01:15;94468.50;;;10.97;92.28
6096;BME280;25081;42.698;23.298;2023-04-25T01:03:26;94471.72;;;10.82;93.22
6096;BME280;25081;42.698;23.298;2023-04-25T01:05:36;94463.53;;;10.72;94.29
6096;BME280;25081;42.698;23.298;2023-04-25T01:07:47;94445.81;;;10.66;95.00
6096;BME280;25081;42.698;23.298;2023-04-25T01:09:57;94445.14;;;10.59;95.39
6096;BME280;25081;42.698;23.298;2023-04-25T01:12:08;94445.11;;;10.56;95.50
6096;BME280;25081;42.698;23.298;2023-04-25T01:14:18;94445.95;;;10.59;96.21
6096;BME280;25081;42.698;23.298;2023-04-25T01:16:29;94440.73;;;10.65;96.77
6096;BME280;25081;42.698;23.298;2023-04-25T01:18:40;94435.44;;;10.67;96.54
6096;BME280;25081;42.698;23.298;2023-04-25T01:20:51;94433.16;;;10.73;96.54
6096;BME280;25081;42.698;23.298;2023-04-25T01:23:02;94430.41;;;10.54;96.58
6096;BME280;25081;42.698;23.298;2023-04-25T01:25:13;94422.34;;;10.51;97.37
6096;BME280;25081;42.698;23.298;2023-04-25T01:27:23;94429.00;;;10.51;97.76
6096;BME280;25081;42.698;23.298;2023-04-25T01:29:34;94429.44;;;10.60;97.68
6096;BME280;25081;42.698;23.298;2023-04-25T01:31:45;94427.25;;;10.57;97.21
6096;BME280;25081;42.698;23.298;2023-04-25T01:33:55;94431.50;;;10.55;97.17
6096;BME280;25081;42.698;23.298;2023-04-25T01:36:07;94424.03;;;10.55;96.97
6096;BME280;25081;42.698;23.298;2023-04-25T01:38:17;94421.33;;;10.52;96.96
6096;BME280;25081;42.698;23.298;2023-04-25T01:40:27;94429.84;;;10.52;96.84
6096;BME280;25081;42.698;23.298;2023-04-25T01:42:38;94426.16;;;10.55;96.99
6096;BME280;25081;42.698;23.298;2023-04-25T01:44:48;94423.59;;;10.46;96.93
6096;BME280;25081;42.698;23.298;2023-04-25T01:46:59;94426.16;;;10.27;97.71
6096;BME280;25081;42.698;23.298;2023-04-25T01:49:09;94427.06;;;10.21;98.39
6096;BME280;25081;42.698;23.298;2023-04-25T01:51:20;94435.05;;;10.21;98.38
6096;BME280;25081;42.698;23.298;2023-04-25T01:53:30;94439.72;;;10.25;98.30
6096;BME280;25081;42.698;23.298;2023-04-25T01:55:41;94438.43;;;10.28;98.09
6096;BME280;25081;42.698;23.298;2023-04-25T01:57:51;94442.54;;;10.33;98.19
6096;BME280;25081;42.698;23.298;2023-04-25T02:00:03;94445.85;;;10.40;98.09
6096;BME280;25081;42.698;23.298;2023-04-25T02:02:12;94438.66;;;10.41;97.40
6096;BME280;25081;42.698;23.298;2023-04-25T02:04:23;94437.52;;;10.51;97.77
6096;BME280;25081;42.698;23.298;2023-04-25T02:06:33;94440.95;;;10.49;97.36
6096;BME280;25081;42.698;23.298;2023-04-25T02:08:44;94434.39;;;10.40;98.34
6096;BME280;25081;42.698;23.298;2023-04-25T02:10:54;94430.26;;;10.46;98.49
6096;BME280;25081;42.698;23.298;2023-04-25T02:13:05;94425.06;;;10.40;97.51
6096;BME280;25081;42.698;23.298;2023-04-25T02:15:16;94430.77;;;10.31;97.69
6096;BME280;25081;42.698;23.298;2023-04-25T02:17:26;94433.70;;;10.32;97.61
6096;BME280;25081;42.698;23.298;2023-04-25T02:19:37;94424.82;;;10.41;97.67
6096;BME280;25081;42.698;23.298;2023-04-25T02:21:47;94419.31;;;10.45;97.80
6096;BME280;25081;42.698;23.298;2023-04-25T02:23:58;94413.18;;;10.45;98.41
6096;BME280;25081;42.698;23.298;2023-04-25T02:26:08;94415.41;;;10.36;98.21
6096;BME280;25081;42.698;23.298;2023-04-25T02:28:19;94404.72;;;10.34;98.18
6096;BME280;25081;42.698;23.298;2023-04-25T02:30:29;94403.59;;;10.32;98.34
6096;BME280;25081;42.698;23.298;2023-04-25T02:32:40;94397.29;;;10.36;97.99
6096;BME280;25081;42.698;23.298;2023-04-25T02:34:51;94391.25;;;10.26;97.98
6096;BME280;25081;42.698;23.298;2023-04-25T02:37:01;94387.70;;;10.23;98.67
6096;BME280;25081;42.698;23.298;2023-04-25T02:39:12;94390.30;;;10.20;99.25
6096;BME280;25081;42.698;23.298;2023-04-25T02:41:22;94391.47;;;10.13;99.09
6096;BME280;25081;42.698;23.298;2023-04-25T02:43:33;94390.14;;;10.13;99.34
6096;BME280;25081;42.698;23.298;2023-04-25T02:45:43;94403.09;;;10.07;99.79
6096;BME280;25081;42.698;23.298;2023-04-25T02:47:54;94399.75;;;9.99;99.77
6096;BME280;25081;42.698;23.298;2023-04-25T02:50:06;94388.77;;;9.96;100.00
6096;BME280;25081;42.698;23.298;2023-04-25T02:52:16;94382.92;;;9.96;100.00
6096;BME280;25081;42.698;23.298;2023-04-25T02:54:27;94258.32;;;9.15;100.00
6096;BME280;25081;42.698;23.298;2023-04-25T02:56:38;94376.83;;;9.98;100.00
6096;BME280;25081;42.698;23.298;2023-04-25T02:58:48;94378.57;;;9.93;100.00
6096;BME280;25081;42.698;23.298;2023-04-25T03:00:59;94391.52;;;10.01;100.00
6096;BME280;25081;42.698;23.298;2023-04-25T03:03:09;94386.72;;;10.00;99.85
6096;BME280;25081;42.698;23.298;2023-04-25T03:05:20;94381.34;;;9.98;100.00
6096;BME280;25081;42.698;23.298;2023-04-25T03:07:30;94376.15;;;9.91;100.00
6096;BME280;25081;42.698;23.298;2023-04-25T03:09:40;94375.05;;;9.90;100.00
6096;BME280;25081;42.698;23.298;2023-04-25T03:11:51;94370.63;;;9.81;100.00
6096;BME280;25081;42.698;23.298;2023-04-25T03:14:02;94372.79;;;9.70;100.00
6096;BME280;25081;42.698;23.298;2023-04-25T03:16:12;94384.51;;;9.57;100.00
6096;BME280;25081;42.698;23.298;2023-04-25T03:18:23;94381.98;;;9.65;100.00
6096;BME280;25081;42.698;23.298;2023-04-25T03:20:33;94372.34;;;9.61;100.00
6096;BME280;25081;42.698;23.298;2023-04-25T03:22:44;94380.09;;;9.63;100.00
6096;BME280;25081;42.698;23.298;2023-04-25T03:24:54;94370.01;;;9.65;100.00
6096;BME280;25081;42.698;23.298;2023-04-25T03:27:05;94365.61;;;9.70;100.00
6096;BME280;25081;42.698;23.298;2023-04-25T03:29:15;94374.69;;;9.72;100.00
6096;BME280;25081;42.698;23.298;2023-04-25T03:31:26;94379.66;;;9.80;100.00
6096;BME280;25081;42.698;23.298;2023-04-25T03:33:36;94369.25;;;9.79;100.00
6096;BME280;25081;42.698;23.298;2023-04-25T03:35:46;94363.88;;;9.76;100.00
6096;BME280;25081;42.698;23.298;2023-04-25T03:37:57;94365.00;;;9.66;100.00
6096;BME280;25081;42.698;23.298;2023-04-25T03:40:09;94368.61;;;9.74;100.00
6096;BME280;25081;42.698;23.298;2023-04-25T03:42:20;94366.59;;;9.79;100.00
6096;BME280;25081;42.698;23.298;2023-04-25T03:44:31;94368.08;;;9.86;100.00
6096;BME280;25081;42.698;23.298;2023-04-25T03:46:41;94376.52;;;9.83;100.00
6096;BME280;25081;42.698;23.298;2023-04-25T03:48:52;94367.59;;;9.89;100.00
6096;BME280;25081;42.698;23.298;2023-04-25T03:51:02;94359.04;;;9.87;100.00
6096;BME280;25081;42.698;23.298;2023-04-25T03:53:13;94355.73;;;9.94;100.00
6096;BME280;25081;42.698;23.298;2023-04-25T03:55:23;94366.09;;;10.08;100.00
6096;BME280;25081;42.698;23.298;2023-04-25T03:57:34;94367.23;;;10.23;100.00
6096;BME280;25081;42.698;23.298;2023-04-25T03:59:44;94366.09;;;10.34;100.00
6096;BME280;25081;42.698;23.298;2023-04-25T04:01:55;94366.02;;;10.45;100.00
6096;BME280;25081;42.698;23.298;2023-04-25T04:04:06;94371.17;;;10.35;99.45
6096;BME280;25081;42.698;23.298;2023-04-25T04:06:16;94386.36;;;10.51;99.50
6096;BME280;25081;42.698;23.298;2023-04-25T04:08:27;94385.98;;;10.59;99.19
6096;BME280;25081;42.698;23.298;2023-04-25T04:10:37;94376.94;;;10.60;98.17
6096;BME280;25081;42.698;23.298;2023-04-25T04:12:48;94384.55;;;10.69;98.19
6096;BME280;25081;42.698;23.298;2023-04-25T04:14:58;94379.70;;;10.66;97.64
6096;BME280;25081;42.698;23.298;2023-04-25T04:17:09;94384.16;;;10.77;97.57
6096;BME280;25081;42.698;23.298;2023-04-25T04:19:19;94372.02;;;10.52;97.30
6096;BME280;25081;42.698;23.298;2023-04-25T04:21:30;94381.20;;;10.45;97.73
6096;BME280;25081;42.698;23.298;2023-04-25T04:23:40;94374.16;;;10.70;97.67
6096;BME280;25081;42.698;23.298;2023-04-25T04:25:51;94376.92;;;10.44;97.88
6096;BME280;25081;42.698;23.298;2023-04-25T04:28:01;94374.97;;;10.53;98.07
6096;BME280;25081;42.698;23.298;2023-04-25T04:30:13;94363.36;;;10.45;98.21
6096;BME280;25081;42.698;23.298;2023-04-25T04:32:23;94363.39;;;10.62;97.91
6096;BME280;25081;42.698;23.298;2023-04-25T04:34:34;94373.84;;;10.66;97.00
6096;BME280;25081;42.698;23.298;2023-04-25T04:36:45;94367.11;;;10.78;96.68
6096;BME280;25081;42.698;23.298;2023-04-25T04:38:55;94370.99;;;10.87;96.26
6096;BME280;25081;42.698;23.298;2023-04-25T04:41:06;94373.88;;;10.83;95.99
6096;BME280;25081;42.698;23.298;2023-04-25T04:43:17;94375.63;;;10.77;95.77
6096;BME280;25081;42.698;23.298;2023-04-25T04:45:28;94382.74;;;10.88;95.39
6096;BME280;25081;42.698;23.298;2023-04-25T04:47:38;94380.44;;;10.78;95.46
6096;BME280;25081;42.698;23.298;2023-04-25T04:49:49;94376.29;;;10.84;95.56
6096;BME280;25081;42.698;23.298;2023-04-25T04:51:59;94379.49;;;10.70;96.23
6096;BME280;25081;42.698;23.298;2023-04-25T04:54:11;94386.58;;;10.78;96.25
6096;BME280;25081;42.698;23.298;2023-04-25T04:56:22;94383.84;;;10.73;95.95
6096;BME280;25081;42.698;23.298;2023-04-25T04:58:32;94389.42;;;10.72;96.31
6096;BME280;25081;42.698;23.298;2023-04-25T05:00:44;94399.87;;;10.76;96.37
6096;BME280;25081;42.698;23.298;2023-04-25T05:02:54;94019.77;;;8.54;96.13
6096;BME280;25081;42.698;23.298;2023-04-25T05:05:05;94400.09;;;11.05;95.76
6096;BME280;25081;42.698;23.298;2023-04-25T05:07:15;94393.75;;;10.92;95.39
6096;BME280;25081;42.698;23.298;2023-04-25T05:09:26;94396.16;;;10.77;96.53
6096;BME280;25081;42.698;23.298;2023-04-25T05:11:36;94409.06;;;10.82;96.78
6096;BME280;25081;42.698;23.298;2023-04-25T05:13:47;94424.60;;;10.88;96.81
6096;BME280;25081;42.698;23.298;2023-04-25T05:15:58;94414.56;;;10.93;97.13
6096;BME280;25081;42.698;23.298;2023-04-25T05:18:09;94403.73;;;10.82;97.06
6096;BME280;25081;42.698;23.298;2023-04-25T05:20:19;94425.02;;;10.66;97.47
6096;BME280;25081;42.698;23.298;2023-04-25T05:22:30;94412.64;;;10.74;96.33
6096;BME280;25081;42.698;23.298;2023-04-25T05:24:40;94408.47;;;10.80;96.82
6096;BME280;25081;42.698;23.298;2023-04-25T05:26:51;94409.16;;;10.90;96.83
6096;BME280;25081;42.698;23.298;2023-04-25T05:29:01;94407.78;;;11.02;96.69
6096;BME280;25081;42.698;23.298;2023-04-25T05:31:12;94408.87;;;11.03;96.02
6096;BME280;25081;42.698;23.298;2023-04-25T05:33:22;94398.03;;;10.93;95.21
6096;BME280;25081;42.698;23.298;2023-04-25T05:35:33;94403.04;;;11.06;95.71
6096;BME280;25081;42.698;23.298;2023-04-25T05:37:44;94401.27;;;11.12;94.87
6096;BME280;25081;42.698;23.298;2023-04-25T05:39:54;94400.94;;;11.25;94.36
6096;BME280;25081;42.698;23.298;2023-04-25T05:42:05;94405.71;;;11.23;93.62
6096;BME280;25081;42.698;23.298;2023-04-25T05:44:16;94401.45;;;11.41;93.51
6096;BME280;25081;42.698;23.298;2023-04-25T05:46:27;94401.05;;;11.50;92.80
6096;BME280;25081;42.698;23.298;2023-04-25T05:48:38;94402.02;;;11.27;92.83
6096;BME280;25081;42.698;23.298;2023-04-25T05:50:48;94399.30;;;11.22;93.08
6096;BME280;25081;42.698;23.298;2023-04-25T05:52:59;94405.56;;;11.30;92.54
6096;BME280;25081;42.698;23.298;2023-04-25T05:55:10;94401.25;;;11.29;92.18
6096;BME280;25081;42.698;23.298;2023-04-25T05:57:24;94399.37;;;11.46;93.29
6096;BME280;25081;42.698;23.298;2023-04-25T05:59:33;94407.02;;;11.95;92.84
6096;BME280;25081;42.698;23.298;2023-04-25T06:01:44;94400.50;;;12.30;89.97
6096;BME280;25081;42.698;23.298;2023-04-25T06:03:54;94394.76;;;12.43;88.07
6096;BME280;25081;42.698;23.298;2023-04-25T06:06:06;94392.47;;;12.54;87.01
6096;BME280;25081;42.698;23.298;2023-04-25T06:08:16;94394.26;;;12.73;86.89
6096;BME280;25081;42.698;23.298;2023-04-25T06:10:27;94395.41;;;12.80;85.57
6096;BME280;25081;42.698;23.298;2023-04-25T06:12:37;94401.36;;;12.87;84.85
6096;BME280;25081;42.698;23.298;2023-04-25T06:14:48;94403.78;;;12.61;85.61
6096;BME280;25081;42.698;23.298;2023-04-25T06:16:58;94395.86;;;12.72;86.23
6096;BME280;25081;42.698;23.298;2023-04-25T06:19:09;94397.45;;;12.70;85.40
6096;BME280;25081;42.698;23.298;2023-04-25T06:21:19;94408.73;;;11.82;87.41
6096;BME280;25081;42.698;23.298;2023-04-25T06:23:30;94412.03;;;11.53;88.92
6096;BME280;25081;42.698;23.298;2023-04-25T06:25:40;94409.78;;;11.81;89.03
6096;BME280;25081;42.698;23.298;2023-04-25T06:27:51;94404.55;;;12.11;87.94
6096;BME280;25081;42.698;23.298;2023-04-25T06:30:01;94404.73;;;12.04;88.12
6096;BME280;25081;42.698;23.298;2023-04-25T06:32:12;94406.42;;;12.35;86.80
6096;BME280;25081;42.698;23.298;2023-04-25T06:34:22;94412.14;;;12.68;86.23
6096;BME280;25081;42.698;23.298;2023-04-25T06:36:33;94411.25;;;13.48;81.16
6096;BME280;25081;42.698;23.298;2023-04-25T06:38:43;94410.15;;;14.44;76.97
6096;BME280;25081;42.698;23.298;2023-04-25T06:40:54;94395.42;;;16.19;72.55
6096;BME280;25081;42.698;23.298;2023-04-25T06:43:04;94398.80;;;18.26;61.47
6096;BME280;25081;42.698;23.298;2023-04-25T06:45:15;94398.80;;;18.26;61.47
6096;BME280;25081;42.698;23.298;2023-04-25T06:47:25;94394.25;;;17.34;61.97
6096;BME280;25081;42.698;23.298;2023-04-25T06:49:36;94403.17;;;16.93;64.23
6096;BME280;25081;42.698;23.298;2023-04-25T06:51:46;94482.94;;;16.81;63.26
6096;BME280;25081;42.698;23.298;2023-04-25T06:53:57;94396.75;;;16.27;65.49
6096;BME280;25081;42.698;23.298;2023-04-25T06:56:07;94479.69;;;15.74;66.89
6096;BME280;25081;42.698;23.298;2023-04-25T06:58:18;94399.84;;;15.24;68.57
6096;BME280;25081;42.698;23.298;2023-04-25T07:00:28;94403.88;;;15.01;68.67
6096;BME280;25081;42.698;23.298;2023-04-25T07:02:39;94413.70;;;14.54;70.02
6096;BME280;25081;42.698;23.298;2023-04-25T07:04:50;94405.92;;;14.48;72.49
6096;BME280;25081;42.698;23.298;2023-04-25T07:07:00;94411.58;;;14.64;71.71
6096;BME280;25081;42.698;23.298;2023-04-25T07:09:11;94408.65;;;14.73;72.13
6096;BME280;25081;42.698;23.298;2023-04-25T07:11:21;94282.67;;;13.40;71.74
6096;BME280;25081;42.698;23.298;2023-04-25T07:13:32;94413.36;;;14.41;72.05
6096;BME280;25081;42.698;23.298;2023-04-25T07:15:42;94421.06;;;14.22;72.88
6096;BME280;25081;42.698;23.298;2023-04-25T07:17:53;94414.22;;;13.94;73.78
6096;BME280;25081;42.698;23.298;2023-04-25T07:20:04;94415.83;;;13.92;74.09
6096;BME280;25081;42.698;23.298;2023-04-25T07:22:16;94415.56;;;13.96;74.66
6096;BME280;25081;42.698;23.298;2023-04-25T07:24:26;94409.96;;;13.53;76.62
6096;BME280;25081;42.698;23.298;2023-04-25T07:26:36;94410.72;;;13.49;76.32
6096;BME280;25081;42.698;23.298;2023-04-25T07:28:47;94412.97;;;13.27;77.02
6096;BME280;25081;42.698;23.298;2023-04-25T07:30:58;94407.95;;;13.33;78.21
6096;BME280;25081;42.698;23.298;2023-04-25T07:33:08;94406.96;;;13.47;77.70
6096;BME280;25081;42.698;23.298;2023-04-25T07:35:19;94407.16;;;13.78;76.33
6096;BME280;25081;42.698;23.298;2023-04-25T07:37:30;94407.34;;;14.11;75.04
6096;BME280;25081;42.698;23.298;2023-04-25T07:39:40;94400.17;;;13.74;76.27
6096;BME280;25081;42.698;23.298;2023-04-25T07:41:51;94401.08;;;13.50;75.79
6096;BME280;25081;42.698;23.298;2023-04-25T07:44:01;94398.92;;;13.47;77.11
6096;BME280;25081;42.698;23.298;2023-04-25T07:46:12;94394.17;;;13.57;76.12
6096;BME280;25081;42.698;23.298;2023-04-25T07:48:22;94393.80;;;13.85;75.60
6096;BME280;25081;42.698;23.298;2023-04-25T07:50:32;94393.75;;;14.30;74.14
6096;BME280;25081;42.698;23.298;2023-04-25T07:52:43;94385.05;;;14.68;73.91
6096;BME280;25081;42.698;23.298;2023-04-25T07:54:53;94388.84;;;15.20;71.07
6096;BME280;25081;42.698;23.298;2023-04-25T07:57:04;94382.14;;;15.66;69.21
6096;BME280;25081;42.698;23.298;2023-04-25T07:59:15;94383.61;;;16.15;68.33
6096;BME280;25081;42.698;23.298;2023-04-25T08:01:25;94381.45;;;16.17;66.56
6096;BME280;25081;42.698;23.298;2023-04-25T08:03:36;94377.89;;;16.35;65.69
6096;BME280;25081;42.698;23.298;2023-04-25T08:05:47;94378.94;;;16.39;62.97
6096;BME280;25081;42.698;23.298;2023-04-25T08:07:57;94360.73;;;18.73;60.08
6096;BME280;25081;42.698;23.298;2023-04-25T08:10:10;94360.73;;;18.73;60.08
6096;BME280;25081;42.698;23.298;2023-04-25T08:12:20;94367.06;;;19.68;56.22
6096;BME280;25081;42.698;23.298;2023-04-25T08:14:31;94365.13;;;20.15;53.69
6096;BME280;25081;42.698;23.298;2023-04-25T08:16:41;94358.18;;;20.67;52.15
6096;BME280;25081;42.698;23.298;2023-04-25T08:18:52;94368.05;;;21.88;49.47
6096;BME280;25081;42.698;23.298;2023-04-25T08:21:03;94350.68;;;21.78;48.01
6096;BME280;25081;42.698;23.298;2023-04-25T08:23:13;94345.34;;;21.31;48.57
6096;BME280;25081;42.698;23.298;2023-04-25T08:25:24;94346.88;;;21.68;48.75
6096;BME280;25081;42.698;23.298;2023-04-25T08:27:35;94347.97;;;22.29;47.73
6096;BME280;25081;42.698;23.298;2023-04-25T08:29:45;94352.52;;;21.80;47.62
6096;BME280;25081;42.698;23.298;2023-04-25T08:31:56;94357.27;;;20.30;51.49
6096;BME280;25081;42.698;23.298;2023-04-25T08:34:06;94356.61;;;19.64;54.21
6096;BME280;25081;42.698;23.298;2023-04-25T08:36:17;94365.44;;;19.19;57.21
6096;BME280;25081;42.698;23.298;2023-04-25T08:38:28;94367.56;;;18.41;60.59
6096;BME280;25081;42.698;23.298;2023-04-25T08:40:39;94376.33;;;18.09;60.27
6096;BME280;25081;42.698;23.298;2023-04-25T08:42:49;94380.89;;;18.56;58.90
6096;BME280;25081;42.698;23.298;2023-04-25T08:45:00;94378.61;;;18.45;57.48
6096;BME280;25081;42.698;23.298;2023-04-25T08:47:10;94380.13;;;18.29;59.88
6096;BME280;25081;42.698;23.298;2023-04-25T08:49:21;94378.19;;;18.11;60.35
6096;BME280;25081;42.698;23.298;2023-04-25T08:51:32;94369.00;;;18.12;59.88
6096;BME280;25081;42.698;23.298;2023-04-25T08:53:42;94362.33;;;18.74;57.96
6096;BME280;25081;42.698;23.298;2023-04-25T08:55:53;94356.45;;;19.39;56.71
6096;BME280;25081;42.698;23.298;2023-04-25T08:58:03;94347.38;;;20.89;52.13
6096;BME280;25081;42.698;23.298;2023-04-25T09:00:15;94349.56;;;21.12;48.61
6096;BME280;25081;42.698;23.298;2023-04-25T09:02:26;94344.38;;;20.24;50.25
6096;BME280;25081;42.698;23.298;2023-04-25T09:04:36;94336.82;;;20.38;50.96
6096;BME280;25081;42.698;23.298;2023-04-25T09:06:47;94346.29;;;20.24;51.47
6096;BME280;25081;42.698;23.298;2023-04-25T09:09:01;94348.39;;;19.37;53.73
6096;BME280;25081;42.698;23.298;2023-04-25T09:11:13;94336.28;;;18.99;53.87
6096;BME280;25081;42.698;23.298;2023-04-25T09:13:26;94333.44;;;18.72;55.65
6096;BME280;25081;42.698;23.298;2023-04-25T09:15:50;94334.87;;;19.04;55.79
6096;BME280;25081;42.698;23.298;2023-04-25T09:18:00;94243.94;;;16.73;59.64
6096;BME280;25081;42.698;23.298;2023-04-25T09:20:12;94332.13;;;18.88;58.03
6096;BME280;25081;42.698;23.298;2023-04-25T09:22:22;94326.89;;;19.45;54.72
6096;BME280;25081;42.698;23.298;2023-04-25T09:24:34;94328.22;;;19.32;55.59
6096;BME280;25081;42.698;23.298;2023-04-25T09:26:44;94327.72;;;19.76;55.34
6096;BME280;25081;42.698;23.298;2023-04-25T09:29:05;94324.80;;;20.44;52.33
6096;BME280;25081;42.698;23.298;2023-04-25T09:31:23;94326.09;;;19.91;51.92
6096;BME280;25081;42.698;23.298;2023-04-25T09:33:34;94322.45;;;19.98;53.34
6096;BME280;25081;42.698;23.298;2023-04-25T09:35:45;94317.81;;;21.37;49.14
6096;BME280;25081;42.698;23.298;2023-04-25T09:37:55;94155.27;;;18.69;50.75
6096;BME280;25081;42.698;23.298;2023-04-25T09:40:08;94321.92;;;18.85;51.67
6096;BME280;25081;42.698;23.298;2023-04-25T09:42:18;94321.78;;;20.32;51.14
6096;BME280;25081;42.698;23.298;2023-04-25T09:44:28;94318.33;;;20.01;46.64
6096;BME280;25081;42.698;23.298;2023-04-25T09:46:39;94313.17;;;20.68;41.33
6096;BME280;25081;42.698;23.298;2023-04-25T09:48:50;94307.45;;;21.70;40.57
6096;BME280;25081;42.698;23.298;2023-04-25T09:51:08;94301.20;;;23.38;36.07
6096;BME280;25081;42.698;23.298;2023-04-25T09:53:18;94318.90;;;23.04;43.58
6096;BME280;25081;42.698;23.298;2023-04-25T09:55:28;94320.59;;;22.65;44.73
6096;BME280;25081;42.698;23.298;2023-04-25T09:57:39;94315.20;;;23.26;43.44
6096;BME280;25081;42.698;23.298;2023-04-25T09:59:50;94315.33;;;22.60;44.59
6096;BME280;25081;42.698;23.298;2023-04-25T10:02:00;94315.20;;;21.32;47.63
6096;BME280;25081;42.698;23.298;2023-04-25T10:04:11;94310.30;;;21.77;46.85
6096;BME280;25081;42.698;23.298;2023-04-25T10:06:21;94315.37;;;23.03;45.24
6096;BME280;25081;42.698;23.298;2023-04-25T10:08:33;94314.95;;;23.42;43.16
6096;BME280;25081;42.698;23.298;2023-04-25T10:10:43;94318.03;;;22.89;43.51
6096;BME280;25081;42.698;23.298;2023-04-25T10:12:54;94311.84;;;22.40;44.43
6096;BME280;25081;42.698;23.298;2023-04-25T10:15:06;94311.97;;;21.75;45.00
6096;BME280;25081;42.698;23.298;2023-04-25T10:17:17;94312.99;;;21.23;45.30
6096;BME280;25081;42.698;23.298;2023-04-25T10:19:27;94335.02;;;19.92;47.80
6096;BME280;25081;42.698;23.298;2023-04-25T10:21:39;94340.88;;;18.40;51.58
6096;BME280;25081;42.698;23.298;2023-04-25T10:23:48;94335.30;;;17.88;51.54
6096;BME280;25081;42.698;23.298;2023-04-25T10:25:59;94318.23;;;18.38;44.89
6096;BME280;25081;42.698;23.298;2023-04-25T10:28:10;94318.69;;;19.67;44.11
6096;BME280;25081;42.698;23.298;2023-04-25T10:30:20;94306.75;;;20.64;41.85
6096;BME280;25081;42.698;23.298;2023-04-25T10:32:31;94301.88;;;20.89;40.64
6096;BME280;25081;42.698;23.298;2023-04-25T10:34:43;94302.16;;;21.34;41.50
6096;BME280;25081;42.698;23.298;2023-04-25T10:36:53;94316.83;;;21.45;39.25
6096;BME280;25081;42.698;23.298;2023-04-25T10:39:05;94319.70;;;20.67;42.97
6096;BME280;25081;42.698;23.298;2023-04-25T10:41:17;94333.62;;;19.64;46.87
6096;BME280;25081;42.698;23.298;2023-04-25T10:43:37;94333.83;;;18.84;49.84
6096;BME280;25081;42.698;23.298;2023-04-25T10:45:53;94329.63;;;18.54;52.71
6096;BME280;25081;42.698;23.298;2023-04-25T10:48:04;94322.24;;;19.16;50.81
6096;BME280;25081;42.698;23.298;2023-04-25T10:50:16;94318.39;;;19.68;47.35
6096;BME280;25081;42.698;23.298;2023-04-25T10:52:27;94311.80;;;20.57;46.30
6096;BME280;25081;42.698;23.298;2023-04-25T10:54:40;94310.80;;;21.23;45.17
6096;BME280;25081;42.698;23.298;2023-04-25T10:56:51;94302.70;;;21.45;43.90
6096;BME280;25081;42.698;23.298;2023-04-25T10:59:11;94306.44;;;21.58;44.08
6096;BME280;25081;42.698;23.298;2023-04-25T11:01:21;94299.61;;;21.49;44.42
6096;BME280;25081;42.698;23.298;2023-04-25T11:03:32;94303.43;;;21.79;42.11
6096;BME280;25081;42.698;23.298;2023-04-25T11:05:42;94047.02;;;19.98;41.77
6096;BME280;25081;42.698;23.298;2023-04-25T11:07:53;94299.30;;;21.17;42.70
6096;BME280;25081;42.698;23.298;2023-04-25T11:10:05;94297.05;;;21.95;42.45
6096;BME280;25081;42.698;23.298;2023-04-25T11:12:16;94296.01;;;21.93;39.53
6096;BME280;25081;42.698;23.298;2023-04-25T11:14:26;94285.37;;;21.55;38.73
6096;BME280;25081;42.698;23.298;2023-04-25T11:16:37;94280.11;;;21.58;38.31
6096;BME280;25081;42.698;23.298;2023-04-25T11:18:47;94287.36;;;20.60;40.20
6096;BME280;25081;42.698;23.298;2023-04-25T11:20:57;94286.84;;;19.64;41.20
6096;BME280;25081;42.698;23.298;2023-04-25T11:23:08;94293.09;;;19.29;43.32
6096;BME280;25081;42.698;23.298;2023-04-25T11:25:18;94301.88;;;18.88;43.54
6096;BME280;25081;42.698;23.298;2023-04-25T11:27:29;94301.70;;;18.61;45.29
6096;BME280;25081;42.698;23.298;2023-04-25T11:29:40;94300.34;;;18.42;49.43
6096;BME280;25081;42.698;23.298;2023-04-25T11:31:50;94295.77;;;18.21;48.46